sensor_id;sensor_type;location;lat;lon;timestamp;pressure;altitude;pressure_sealevel;temperature;humidity
69535;BME280;56754;51.568;5.048;2023-08-06T00:00:18;100312.56;;;18.83;70.52
69535;BME280;56754;51.568;5.048;2023-08-06T00:02:43;100311.78;;;18.82;70.45
69535;BME280;56754;51.568;5.048;2023-08-06T00:05:08;100312.94;;;18.81;70.49
69535;BME280;56754;51.568;5.048;2023-08-06T00:07:33;100312.16;;;18.81;70.53
69535;BME280;56754;51.568;5.048;2023-08-06T00:09:59;100314.84;;;18.81;70.67
69535;BME280;56754;51.568;5.048;2023-08-06T00:12:24;100307.91;;;18.80;70.43
69535;BME280;56754;51.568;5.048;2023-08-06T00:14:50;100307.13;;;18.79;70.55
69535;BME280;56754;51.568;5.048;2023-08-06T00:17:16;100302.88;;;18.78;70.69
69535;BME280;56754;51.568;5.048;2023-08-06T00:19:41;100301.72;;;18.79;70.64
69535;BME280;56754;51.568;5.048;2023-08-06T00:22:06;100308.28;;;18.78;70.67
69535;BME280;56754;51.568;5.048;2023-08-06T00:24:32;100293.19;;;18.77;70.69
69535;BME280;56754;51.568;5.048;2023-08-06T00:26:57;100297.03;;;18.76;70.75
69535;BME280;56754;51.568;5.048;2023-08-06T00:29:22;100291.63;;;18.76;70.67
69535;BME280;56754;51.568;5.048;2023-08-06T00:31:47;100296.28;;;18.76;70.64
69535;BME280;56754;51.568;5.048;2023-08-06T00:34:13;100300.91;;;18.75;70.61
69535;BME280;56754;51.568;5.048;2023-08-06T00:36:38;100293.16;;;18.74;70.66
69535;BME280;56754;51.568;5.048;2023-08-06T00:39:03;100297.81;;;18.73;70.77
69535;BME280;56754;51.568;5.048;2023-08-06T00:41:28;100294.66;;;18.71;70.78
69535;BME280;56754;51.568;5.048;2023-08-06T00:43:54;100296.59;;;18.71;70.90
69535;BME280;56754;51.568;5.048;2023-08-06T00:46:19;100291.94;;;18.71;70.79
69535;BME280;56754;51.568;5.048;2023-08-06T00:48:45;100287.69;;;18.70;70.91
69535;BME280;56754;51.568;5.048;2023-08-06T00:51:11;100291.53;;;18.69;70.81
69535;BME280;56754;51.568;5.048;2023-08-06T00:53:39;100286.13;;;18.69;70.74
69535;BME280;56754;51.568;5.048;2023-08-06T00:56:06;100284.59;;;18.68;70.75
69535;BME280;56754;51.568;5.048;2023-08-06T00:58:32;100292.72;;;18.68;70.90
69535;BME280;56754;51.568;5.048;2023-08-06T01:00:57;100292.72;;;18.68;71.28
69535;BME280;56754;51.568;5.048;2023-08-06T01:03:23;100291.16;;;18.67;70.95
69535;BME280;56754;51.568;5.048;2023-08-06T01:05:48;100295.00;;;18.66;70.78
69535;BME280;56754;51.568;5.048;2023-08-06T01:14:33;100286.09;;;18.65;71.03
69535;BME280;56754;51.568;5.048;2023-08-06T01:17:00;100287.28;;;18.64;71.13
69535;BME280;56754;51.568;5.048;2023-08-06T01:19:26;100283.78;;;18.64;70.97
69535;BME280;56754;51.568;5.048;2023-08-06T01:21:51;100286.50;;;18.64;71.14
69535;BME280;56754;51.568;5.048;2023-08-06T01:24:17;100289.22;;;18.64;70.98
69535;BME280;56754;51.568;5.048;2023-08-06T01:26:45;100291.16;;;18.63;71.20
69535;BME280;56754;51.568;5.048;2023-08-06T01:29:18;100285.72;;;18.63;71.09
69535;BME280;56754;51.568;5.048;2023-08-06T01:31:48;100285.72;;;18.63;71.11
69535;BME280;56754;51.568;5.048;2023-08-06T01:34:23;100290.34;;;18.63;71.12
69535;BME280;56754;51.568;5.048;2023-08-06T01:36:50;100295.75;;;18.63;71.32
69535;BME280;56754;51.568;5.048;2023-08-06T01:39:15;100292.28;;;18.62;71.08
69535;BME280;56754;51.568;5.048;2023-08-06T01:41:41;100296.91;;;18.62;71.21
69535;BME280;56754;51.568;5.048;2023-08-06T01:44:07;100299.63;;;18.62;71.09
69535;BME280;56754;51.568;5.048;2023-08-06T01:46:32;100296.91;;;18.62;71.14
69535;BME280;56754;51.568;5.048;2023-08-06T01:48:58;100297.69;;;18.62;71.13
69535;BME280;56754;51.568;5.048;2023-08-06T01:51:23;100300.41;;;18.62;71.22
69535;BME280;56754;51.568;5.048;2023-08-06T01:53:48;100297.69;;;18.62;71.27
69535;BME280;56754;51.568;5.048;2023-08-06T01:56:14;100296.91;;;18.62;71.03
69535;BME280;56754;51.568;5.048;2023-08-06T01:58:39;100291.50;;;18.62;71.34
69535;BME280;56754;51.568;5.048;2023-08-06T02:01:04;100283.38;;;18.62;71.17
69535;BME280;56754;51.568;5.048;2023-08-06T02:03:29;100286.09;;;18.62;71.20
69535;BME280;56754;51.568;5.048;2023-08-06T02:05:55;100287.25;;;18.61;71.18
69535;BME280;56754;51.568;5.048;2023-08-06T02:08:20;100290.72;;;18.61;71.36
69535;BME280;56754;51.568;5.048;2023-08-06T02:10:45;100287.63;;;18.63;71.25
69535;BME280;56754;51.568;5.048;2023-08-06T02:13:11;100296.91;;;18.62;71.21
69535;BME280;56754;51.568;5.048;2023-08-06T02:15:42;100296.16;;;18.61;71.34
69535;BME280;56754;51.568;5.048;2023-08-06T02:18:07;100294.22;;;18.62;71.28
69535;BME280;56754;51.568;5.048;2023-08-06T02:20:32;100294.22;;;18.62;71.32
69535;BME280;56754;51.568;5.048;2023-08-06T02:22:57;100296.16;;;18.61;71.19
69535;BME280;56754;51.568;5.048;2023-08-06T02:25:23;100291.50;;;18.62;71.18
69535;BME280;56754;51.568;5.048;2023-08-06T02:27:49;100301.56;;;18.61;71.39
69535;BME280;56754;51.568;5.048;2023-08-06T02:30:14;100300.41;;;18.62;71.23
69535;BME280;56754;51.568;5.048;2023-08-06T02:32:39;100300.78;;;18.61;71.31
69535;BME280;56754;51.568;5.048;2023-08-06T02:35:05;100305.44;;;18.60;71.40
69535;BME280;56754;51.568;5.048;2023-08-06T02:37:33;100303.50;;;18.61;71.48
69535;BME280;56754;51.568;5.048;2023-08-06T02:39:58;100303.84;;;18.59;71.33
69535;BME280;56754;51.568;5.048;2023-08-06T02:42:23;100300.78;;;18.61;71.38
69535;BME280;56754;51.568;5.048;2023-08-06T02:44:49;100307.34;;;18.60;71.38
69535;BME280;56754;51.568;5.048;2023-08-06T02:47:14;100291.09;;;18.60;71.31
69535;BME280;56754;51.568;5.048;2023-08-06T02:49:39;100295.75;;;18.59;71.43
69535;BME280;56754;51.568;5.048;2023-08-06T02:52:05;100298.44;;;18.59;71.42
69535;BME280;56754;51.568;5.048;2023-08-06T02:54:31;100297.66;;;18.59;71.50
69535;BME280;56754;51.568;5.048;2023-08-06T02:56:56;100300.03;;;18.60;71.45
69535;BME280;56754;51.568;5.048;2023-08-06T02:59:21;100296.50;;;18.60;71.47
69535;BME280;56754;51.568;5.048;2023-08-06T03:01:46;100288.38;;;18.60;71.47
69535;BME280;56754;51.568;5.048;2023-08-06T03:04:12;100293.03;;;18.59;71.61
69535;BME280;56754;51.568;5.048;2023-08-06T03:06:37;100288.78;;;18.58;71.38
69535;BME280;56754;51.568;5.048;2023-08-06T03:09:02;100297.66;;;18.59;71.45
69535;BME280;56754;51.568;5.048;2023-08-06T03:11:27;100295.75;;;18.59;71.52
69535;BME280;56754;51.568;5.048;2023-08-06T03:13:53;100296.91;;;18.58;71.41
69535;BME280;56754;51.568;5.048;2023-08-06T03:16:18;100298.44;;;18.59;71.40
69535;BME280;56754;51.568;5.048;2023-08-06T03:18:43;100298.44;;;18.59;71.42
69535;BME280;56754;51.568;5.048;2023-08-06T03:21:09;100292.25;;;18.59;71.38
69535;BME280;56754;51.568;5.048;2023-08-06T03:23:34;100292.25;;;18.59;71.52
69535;BME280;56754;51.568;5.048;2023-08-06T03:26:02;100292.25;;;18.59;71.45
69535;BME280;56754;51.568;5.048;2023-08-06T03:28:28;100301.53;;;18.58;71.38
69535;BME280;56754;51.568;5.048;2023-08-06T03:31:03;100303.84;;;18.59;71.40
69535;BME280;56754;51.568;5.048;2023-08-06T03:33:29;100304.25;;;18.58;71.57
69535;BME280;56754;51.568;5.048;2023-08-06T03:35:54;100298.84;;;18.58;71.40
69535;BME280;56754;51.568;5.048;2023-08-06T03:38:19;100302.69;;;18.57;71.46
69535;BME280;56754;51.568;5.048;2023-08-06T03:40:46;100309.66;;;18.58;71.64
69535;BME280;56754;51.568;5.048;2023-08-06T03:43:11;100315.06;;;18.58;71.43
69535;BME280;56754;51.568;5.048;2023-08-06T03:45:36;100308.09;;;18.57;71.56
69535;BME280;56754;51.568;5.048;2023-08-06T03:48:01;100310.78;;;18.57;71.46
69535;BME280;56754;51.568;5.048;2023-08-06T03:50:27;100306.16;;;18.57;71.57
69535;BME280;56754;51.568;5.048;2023-08-06T03:52:52;100322.41;;;18.57;71.48
69535;BME280;56754;51.568;5.048;2023-08-06T03:55:17;100310.78;;;18.57;71.46
69535;BME280;56754;51.568;5.048;2023-08-06T03:57:42;100313.50;;;18.57;71.45
69535;BME280;56754;51.568;5.048;2023-08-06T04:00:08;100318.91;;;18.57;71.64
69535;BME280;56754;51.568;5.048;2023-08-06T04:02:34;100323.19;;;18.58;71.46
69535;BME280;56754;51.568;5.048;2023-08-06T04:05:00;100314.28;;;18.57;71.44
69535;BME280;56754;51.568;5.048;2023-08-06T04:07:26;100324.31;;;18.57;71.63
69535;BME280;56754;51.568;5.048;2023-08-06T04:09:56;100322.78;;;18.56;71.60
69535;BME280;56754;51.568;5.048;2023-08-06T04:12:22;100334.03;;;18.58;71.59
69535;BME280;56754;51.568;5.048;2023-08-06T04:14:47;100325.50;;;18.56;71.70
69535;BME280;56754;51.568;5.048;2023-08-06T04:17:13;100325.50;;;18.56;71.72
69535;BME280;56754;51.568;5.048;2023-08-06T04:19:38;100329.75;;;18.57;71.57
69535;BME280;56754;51.568;5.048;2023-08-06T04:22:03;100330.91;;;18.56;71.53
69535;BME280;56754;51.568;5.048;2023-08-06T04:24:29;100326.25;;;18.56;71.65
69535;BME280;56754;51.568;5.048;2023-08-06T04:26:54;100330.91;;;18.56;71.58
69535;BME280;56754;51.568;5.048;2023-08-06T04:29:19;100333.59;;;18.56;71.54
69535;BME280;56754;51.568;5.048;2023-08-06T04:31:44;100345.97;;;18.57;71.65
69535;BME280;56754;51.568;5.048;2023-08-06T04:34:10;100332.06;;;18.55;71.29
69535;BME280;56754;51.568;5.048;2023-08-06T04:36:35;100338.25;;;18.55;71.72
69535;BME280;56754;51.568;5.048;2023-08-06T04:39:00;100340.19;;;18.55;71.77
69535;BME280;56754;51.568;5.048;2023-08-06T04:41:25;100353.72;;;18.55;71.51
69535;BME280;56754;51.568;5.048;2023-08-06T04:43:51;100351.00;;;18.55;71.49
69535;BME280;56754;51.568;5.048;2023-08-06T04:46:16;100348.31;;;18.55;71.77
69535;BME280;56754;51.568;5.048;2023-08-06T04:48:41;100357.19;;;18.55;71.79
69535;BME280;56754;51.568;5.048;2023-08-06T04:51:06;100353.72;;;18.55;71.63
69535;BME280;56754;51.568;5.048;2023-08-06T04:53:32;100356.41;;;18.55;71.62
69535;BME280;56754;51.568;5.048;2023-08-06T04:55:57;100350.22;;;18.54;71.73
69535;BME280;56754;51.568;5.048;2023-08-06T04:58:22;100356.00;;;18.53;71.49
69535;BME280;56754;51.568;5.048;2023-08-06T05:00:48;100355.63;;;18.54;71.74
69535;BME280;56754;51.568;5.048;2023-08-06T05:03:13;100358.72;;;18.53;71.49
69535;BME280;56754;51.568;5.048;2023-08-06T05:05:40;100361.41;;;18.53;71.62
69535;BME280;56754;51.568;5.048;2023-08-06T05:08:05;100358.72;;;18.53;71.66
69535;BME280;56754;51.568;5.048;2023-08-06T05:10:30;100358.72;;;18.53;71.79
69535;BME280;56754;51.568;5.048;2023-08-06T05:12:56;100362.19;;;18.53;71.56
69535;BME280;56754;51.568;5.048;2023-08-06T05:15:21;100369.53;;;18.53;71.71
69535;BME280;56754;51.568;5.048;2023-08-06T05:17:46;100371.47;;;18.52;71.77
69535;BME280;56754;51.568;5.048;2023-08-06T05:20:12;100381.13;;;18.53;71.53
69535;BME280;56754;51.568;5.048;2023-08-06T05:22:37;100371.47;;;18.52;71.58
69535;BME280;56754;51.568;5.048;2023-08-06T05:25:02;100379.59;;;18.52;71.79
69535;BME280;56754;51.568;5.048;2023-08-06T05:27:28;100391.97;;;18.53;71.45
69535;BME280;56754;51.568;5.048;2023-08-06T05:29:55;100395.84;;;18.52;71.64
69535;BME280;56754;51.568;5.048;2023-08-06T05:32:20;100405.88;;;18.52;71.49
69535;BME280;56754;51.568;5.048;2023-08-06T05:34:45;100407.44;;;18.53;71.56
69535;BME280;56754;51.568;5.048;2023-08-06T05:37:11;100410.50;;;18.51;71.66
69535;BME280;56754;51.568;5.048;2023-08-06T05:39:36;100421.31;;;18.51;71.48
69535;BME280;56754;51.568;5.048;2023-08-06T05:42:01;100444.91;;;18.51;71.21
69535;BME280;56754;51.568;5.048;2023-08-06T05:44:27;100448.78;;;18.50;70.82
69535;BME280;56754;51.568;5.048;2023-08-06T05:46:52;100455.34;;;18.49;70.93
69535;BME280;56754;51.568;5.048;2023-08-06T05:49:17;100477.00;;;18.49;70.59
69535;BME280;56754;51.568;5.048;2023-08-06T05:51:42;100471.53;;;18.45;70.24
69535;BME280;56754;51.568;5.048;2023-08-06T05:54:08;100484.66;;;18.43;70.74
69535;BME280;56754;51.568;5.048;2023-08-06T05:56:33;100486.94;;;18.41;70.75
69535;BME280;56754;51.568;5.048;2023-08-06T05:58:58;100478.81;;;18.37;70.69
69535;BME280;56754;51.568;5.048;2023-08-06T06:01:23;100488.03;;;18.36;71.04
69535;BME280;56754;51.568;5.048;2023-08-06T06:03:49;100482.25;;;18.34;70.66
69535;BME280;56754;51.568;5.048;2023-08-06T06:06:14;100481.06;;;18.32;70.76
69535;BME280;56754;51.568;5.048;2023-08-06T06:08:39;100493.38;;;18.29;70.68
69535;BME280;56754;51.568;5.048;2023-08-06T06:11:05;100495.69;;;18.27;71.10
69535;BME280;56754;51.568;5.048;2023-08-06T06:13:30;100498.00;;;18.25;70.71
69535;BME280;56754;51.568;5.048;2023-08-06T06:15:55;100502.97;;;18.23;71.03
69535;BME280;56754;51.568;5.048;2023-08-06T06:18:21;100506.84;;;18.22;71.08
69535;BME280;56754;51.568;5.048;2023-08-06T06:20:46;100514.53;;;18.20;71.32
69535;BME280;56754;51.568;5.048;2023-08-06T06:23:11;100510.28;;;18.19;71.60
69535;BME280;56754;51.568;5.048;2023-08-06T06:25:42;100517.59;;;18.18;71.47
69535;BME280;56754;51.568;5.048;2023-08-06T06:28:07;100524.94;;;18.18;71.81
69535;BME280;56754;51.568;5.048;2023-08-06T06:30:32;100526.09;;;18.17;71.59
69535;BME280;56754;51.568;5.048;2023-08-06T06:32:58;100521.81;;;18.16;72.00
69535;BME280;56754;51.568;5.048;2023-08-06T06:35:23;100522.19;;;18.14;71.43
69535;BME280;56754;51.568;5.048;2023-08-06T06:37:48;100536.88;;;18.13;71.98
69535;BME280;56754;51.568;5.048;2023-08-06T06:40:13;100543.06;;;18.14;71.89
69535;BME280;56754;51.568;5.048;2023-08-06T06:42:39;100541.47;;;18.13;72.02
69535;BME280;56754;51.568;5.048;2023-08-06T06:45:04;100544.19;;;18.13;71.82
69535;BME280;56754;51.568;5.048;2023-08-06T06:47:30;100550.41;;;18.13;72.04
69535;BME280;56754;51.568;5.048;2023-08-06T06:49:55;100553.09;;;18.13;71.87
69535;BME280;56754;51.568;5.048;2023-08-06T06:52:20;100552.31;;;18.13;72.39
69535;BME280;56754;51.568;5.048;2023-08-06T06:54:46;100555.81;;;18.13;71.69
69535;BME280;56754;51.568;5.048;2023-08-06T06:57:11;100563.13;;;18.13;72.13
69535;BME280;56754;51.568;5.048;2023-08-06T06:59:36;100565.81;;;18.13;71.83
69535;BME280;56754;51.568;5.048;2023-08-06T07:02:01;100568.53;;;18.13;72.00
69535;BME280;56754;51.568;5.048;2023-08-06T07:04:27;100568.53;;;18.13;72.11
69535;BME280;56754;51.568;5.048;2023-08-06T07:06:52;100573.16;;;18.12;71.93
69535;BME280;56754;51.568;5.048;2023-08-06T07:09:17;100573.94;;;18.13;72.04
69535;BME280;56754;51.568;5.048;2023-08-06T07:11:42;100568.53;;;18.13;71.80
69535;BME280;56754;51.568;5.048;2023-08-06T07:14:08;100571.66;;;18.15;72.08
69535;BME280;56754;51.568;5.048;2023-08-06T07:16:33;100578.22;;;18.14;71.78
69535;BME280;56754;51.568;5.048;2023-08-06T07:18:58;100585.19;;;18.15;72.16
69535;BME280;56754;51.568;5.048;2023-08-06T07:21:23;100585.19;;;18.15;71.96
69535;BME280;56754;51.568;5.048;2023-08-06T07:23:49;100589.03;;;18.14;71.92
69535;BME280;56754;51.568;5.048;2023-08-06T07:26:14;100587.88;;;18.15;72.05
69535;BME280;56754;51.568;5.048;2023-08-06T07:28:39;100604.50;;;18.13;71.97
69535;BME280;56754;51.568;5.048;2023-08-06T07:31:05;100602.56;;;18.14;71.91
69535;BME280;56754;51.568;5.048;2023-08-06T07:33:30;100607.97;;;18.14;72.03
69535;BME280;56754;51.568;5.048;2023-08-06T07:35:55;100609.09;;;18.13;71.82
69535;BME280;56754;51.568;5.048;2023-08-06T07:38:21;100612.63;;;18.13;72.16
69535;BME280;56754;51.568;5.048;2023-08-06T07:40:46;100618.78;;;18.14;71.84
69535;BME280;56754;51.568;5.048;2023-08-06T07:43:11;100622.63;;;18.13;72.05
69535;BME280;56754;51.568;5.048;2023-08-06T07:45:36;100621.50;;;18.14;71.93
69535;BME280;56754;51.568;5.048;2023-08-06T07:48:02;100632.31;;;18.14;71.64
69535;BME280;56754;51.568;5.048;2023-08-06T07:50:28;100626.91;;;18.14;71.88
69535;BME280;56754;51.568;5.048;2023-08-06T07:52:53;100625.34;;;18.13;71.83
69535;BME280;56754;51.568;5.048;2023-08-06T07:55:18;100629.63;;;18.14;71.94
69535;BME280;56754;51.568;5.048;2023-08-06T07:57:44;100629.22;;;18.15;72.00
69535;BME280;56754;51.568;5.048;2023-08-06T08:00:09;100629.63;;;18.14;71.59
69535;BME280;56754;51.568;5.048;2023-08-06T08:02:35;100638.50;;;18.14;71.81
69535;BME280;56754;51.568;5.048;2023-08-06T08:05:00;100637.72;;;18.14;71.29
69535;BME280;56754;51.568;5.048;2023-08-06T08:07:25;100642.38;;;18.13;71.67
69535;BME280;56754;51.568;5.048;2023-08-06T08:09:51;100645.84;;;18.14;71.62
69535;BME280;56754;51.568;5.048;2023-08-06T08:12:16;100636.56;;;18.15;71.38
69535;BME280;56754;51.568;5.048;2023-08-06T08:14:41;100645.47;;;18.15;71.61
69535;BME280;56754;51.568;5.048;2023-08-06T08:17:06;100639.69;;;18.17;71.60
69535;BME280;56754;51.568;5.048;2023-08-06T08:19:32;100637.00;;;18.17;71.49
69535;BME280;56754;51.568;5.048;2023-08-06T08:21:58;100643.19;;;18.17;71.02
69535;BME280;56754;51.568;5.048;2023-08-06T08:24:23;100640.91;;;18.19;71.41
69535;BME280;56754;51.568;5.048;2023-08-06T08:26:52;100649.78;;;18.20;71.37
69535;BME280;56754;51.568;5.048;2023-08-06T08:29:20;100649.41;;;18.22;71.18
69535;BME280;56754;51.568;5.048;2023-08-06T08:31:45;100654.47;;;18.23;71.16
69535;BME280;56754;51.568;5.048;2023-08-06T08:34:11;100645.19;;;18.24;71.06
69535;BME280;56754;51.568;5.048;2023-08-06T08:36:36;100652.19;;;18.25;71.02
69535;BME280;56754;51.568;5.048;2023-08-06T08:39:01;100653.75;;;18.26;70.88
69535;BME280;56754;51.568;5.048;2023-08-06T08:41:29;100659.16;;;18.26;70.78
69535;BME280;56754;51.568;5.048;2023-08-06T08:43:55;100657.59;;;18.25;70.80
69535;BME280;56754;51.568;5.048;2023-08-06T08:46:22;100660.69;;;18.27;70.60
69535;BME280;56754;51.568;5.048;2023-08-06T08:48:48;100662.28;;;18.28;70.69
69535;BME280;56754;51.568;5.048;2023-08-06T08:51:16;100668.47;;;18.29;70.66
69535;BME280;56754;51.568;5.048;2023-08-06T08:53:44;100665.38;;;18.30;70.50
69535;BME280;56754;51.568;5.048;2023-08-06T08:56:11;100666.16;;;18.31;70.30
69535;BME280;56754;51.568;5.048;2023-08-06T08:58:37;100671.22;;;18.32;70.32
69535;BME280;56754;51.568;5.048;2023-08-06T09:01:03;100668.16;;;18.34;70.31
69535;BME280;56754;51.568;5.048;2023-08-06T09:03:29;100672.41;;;18.35;70.22
69535;BME280;56754;51.568;5.048;2023-08-06T09:05:56;100675.56;;;18.37;70.03
69535;BME280;56754;51.568;5.048;2023-08-06T09:08:27;100679.03;;;18.37;70.17
69535;BME280;56754;51.568;5.048;2023-08-06T09:10:55;100680.22;;;18.40;70.32
69535;BME280;56754;51.568;5.048;2023-08-06T09:13:21;100686.81;;;18.42;70.22
69535;BME280;56754;51.568;5.048;2023-08-06T09:15:46;100687.22;;;18.45;70.08
69535;BME280;56754;51.568;5.048;2023-08-06T09:18:12;100691.50;;;18.46;70.12
69535;BME280;56754;51.568;5.048;2023-08-06T09:20:38;100691.91;;;18.48;69.89
69535;BME280;56754;51.568;5.048;2023-08-06T09:23:08;100688.06;;;18.49;70.07
69535;BME280;56754;51.568;5.048;2023-08-06T09:25:33;100699.69;;;18.49;69.83
69535;BME280;56754;51.568;5.048;2023-08-06T09:27:58;100700.06;;;18.51;69.95
69535;BME280;56754;51.568;5.048;2023-08-06T09:30:31;100697.00;;;18.53;69.95
69535;BME280;56754;51.568;5.048;2023-08-06T09:32:57;100697.78;;;18.53;69.81
69535;BME280;56754;51.568;5.048;2023-08-06T09:35:22;100696.28;;;18.56;69.69
69535;BME280;56754;51.568;5.048;2023-08-06T09:37:48;100705.59;;;18.58;69.68
69535;BME280;56754;51.568;5.048;2023-08-06T09:42:52;100707.56;;;18.61;69.84
69535;BME280;56754;51.568;5.048;2023-08-06T09:45:18;100713.41;;;18.63;69.86
69535;BME280;56754;51.568;5.048;2023-08-06T09:47:43;100713.03;;;18.65;69.45
69535;BME280;56754;51.568;5.048;2023-08-06T09:50:19;100716.16;;;18.67;69.55
69535;BME280;56754;51.568;5.048;2023-08-06T09:52:44;100713.84;;;18.69;69.34
69535;BME280;56754;51.568;5.048;2023-08-06T09:55:13;100720.06;;;18.70;69.43
69535;BME280;56754;51.568;5.048;2023-08-06T09:57:40;100730.50;;;18.71;69.50
69535;BME280;56754;51.568;5.048;2023-08-06T10:00:07;100730.16;;;18.73;69.48
69535;BME280;56754;51.568;5.048;2023-08-06T10:02:33;100729.34;;;18.72;69.30
69535;BME280;56754;51.568;5.048;2023-08-06T10:04:59;100731.38;;;18.75;69.27
69535;BME280;56754;51.568;5.048;2023-08-06T10:07:25;100738.34;;;18.76;69.24
69535;BME280;56754;51.568;5.048;2023-08-06T10:09:50;100738.34;;;18.76;69.32
69535;BME280;56754;51.568;5.048;2023-08-06T10:12:16;100734.50;;;18.77;68.95
69535;BME280;56754;51.568;5.048;2023-08-06T10:14:43;100734.13;;;18.79;69.03
69535;BME280;56754;51.568;5.048;2023-08-06T10:17:08;100746.53;;;18.80;68.98
69535;BME280;56754;51.568;5.048;2023-08-06T10:19:34;100741.09;;;18.80;68.94
69535;BME280;56754;51.568;5.048;2023-08-06T10:22:13;100739.94;;;18.81;68.86
69535;BME280;56754;51.568;5.048;2023-08-06T10:24:52;100744.22;;;18.82;68.78
69535;BME280;56754;51.568;5.048;2023-08-06T10:29:46;100749.25;;;18.83;68.66
69535;BME280;56754;51.568;5.048;2023-08-06T10:32:11;100750.03;;;18.84;68.54
69535;BME280;56754;51.568;5.048;2023-08-06T10:34:55;100751.63;;;18.85;68.46
69535;BME280;56754;51.568;5.048;2023-08-06T10:37:21;100756.66;;;18.86;68.63
69535;BME280;56754;51.568;5.048;2023-08-06T10:39:52;100756.66;;;18.86;68.47
69535;BME280;56754;51.568;5.048;2023-08-06T10:42:28;100751.25;;;18.86;68.37
69535;BME280;56754;51.568;5.048;2023-08-06T10:47:38;100759.78;;;18.89;68.29
69535;BME280;56754;51.568;5.048;2023-08-06T10:50:03;100761.34;;;18.90;68.24
69535;BME280;56754;51.568;5.048;2023-08-06T10:52:29;100763.69;;;18.91;68.24
69535;BME280;56754;51.568;5.048;2023-08-06T10:54:55;100766.81;;;18.93;68.03
69535;BME280;56754;51.568;5.048;2023-08-06T10:57:20;100761.41;;;18.93;68.32
69535;BME280;56754;51.568;5.048;2023-08-06T10:59:45;100770.69;;;18.96;68.20
69535;BME280;56754;51.568;5.048;2023-08-06T11:02:10;100767.63;;;18.97;68.35
69535;BME280;56754;51.568;5.048;2023-08-06T11:04:36;100768.41;;;18.98;67.93
69535;BME280;56754;51.568;5.048;2023-08-06T11:07:01;100776.97;;;19.00;68.20
69535;BME280;56754;51.568;5.048;2023-08-06T11:09:26;100778.50;;;19.01;67.91
69535;BME280;56754;51.568;5.048;2023-08-06T11:11:52;100771.59;;;19.03;68.04
69535;BME280;56754;51.568;5.048;2023-08-06T11:14:17;100769.28;;;19.05;68.21
69535;BME280;56754;51.568;5.048;2023-08-06T11:16:42;100772.41;;;19.07;68.39
69535;BME280;56754;51.568;5.048;2023-08-06T11:19:08;100770.50;;;19.08;68.02
69535;BME280;56754;51.568;5.048;2023-08-06T11:21:33;100779.00;;;19.10;68.09
69535;BME280;56754;51.568;5.048;2023-08-06T11:23:59;100772.47;;;19.11;68.05
69535;BME280;56754;51.568;5.048;2023-08-06T11:26:24;100770.16;;;19.13;68.38
69535;BME280;56754;51.568;5.048;2023-08-06T11:28:50;100771.72;;;19.14;67.95
69535;BME280;56754;51.568;5.048;2023-08-06T11:31:22;100772.13;;;19.16;67.89
69535;BME280;56754;51.568;5.048;2023-08-06T11:33:49;100769.06;;;19.18;67.24
69535;BME280;56754;51.568;5.048;2023-08-06T11:36:15;100781.81;;;19.17;67.33
69535;BME280;56754;51.568;5.048;2023-08-06T11:38:40;100776.41;;;19.17;66.88
69535;BME280;56754;51.568;5.048;2023-08-06T11:41:06;100784.16;;;19.19;67.44
69535;BME280;56754;51.568;5.048;2023-08-06T11:43:32;100780.66;;;19.18;67.19
69535;BME280;56754;51.568;5.048;2023-08-06T11:45:57;100786.50;;;19.20;67.97
69535;BME280;56754;51.568;5.048;2023-08-06T11:48:22;100786.50;;;19.20;67.26
69535;BME280;56754;51.568;5.048;2023-08-06T11:50:47;100781.88;;;19.21;67.00
69535;BME280;56754;51.568;5.048;2023-08-06T11:53:14;100779.16;;;19.21;67.48
69535;BME280;56754;51.568;5.048;2023-08-06T11:55:39;100787.28;;;19.21;67.19
69535;BME280;56754;51.568;5.048;2023-08-06T11:58:04;100780.72;;;19.22;67.47
69535;BME280;56754;51.568;5.048;2023-08-06T12:00:30;100788.84;;;19.22;66.83
69535;BME280;56754;51.568;5.048;2023-08-06T12:02:56;100786.91;;;19.22;67.60
69535;BME280;56754;51.568;5.048;2023-08-06T12:05:23;100788.47;;;19.23;66.76
69535;BME280;56754;51.568;5.048;2023-08-06T12:07:50;100788.47;;;19.23;67.41
69535;BME280;56754;51.568;5.048;2023-08-06T12:10:16;100786.16;;;19.25;67.22
69535;BME280;56754;51.568;5.048;2023-08-06T12:12:42;100790.44;;;19.26;67.29
69535;BME280;56754;51.568;5.048;2023-08-06T12:15:08;100793.94;;;19.27;68.22
69535;BME280;56754;51.568;5.048;2023-08-06T12:17:34;100790.06;;;19.28;67.45
69535;BME280;56754;51.568;5.048;2023-08-06T12:19:59;100791.25;;;19.30;67.48
69535;BME280;56754;51.568;5.048;2023-08-06T12:22:25;100797.47;;;19.31;67.76
69535;BME280;56754;51.568;5.048;2023-08-06T12:24:50;100793.63;;;19.32;68.09
69535;BME280;56754;51.568;5.048;2023-08-06T12:27:15;100797.88;;;19.33;67.40
69535;BME280;56754;51.568;5.048;2023-08-06T12:29:42;100799.06;;;19.36;68.00
69535;BME280;56754;51.568;5.048;2023-08-06T12:32:08;100805.28;;;19.36;66.92
69535;BME280;56754;51.568;5.048;2023-08-06T12:34:33;100799.84;;;19.36;67.51
69535;BME280;56754;51.568;5.048;2023-08-06T12:36:59;100809.53;;;19.37;67.91
69535;BME280;56754;51.568;5.048;2023-08-06T12:39:24;100806.81;;;19.37;68.14
69535;BME280;56754;51.568;5.048;2023-08-06T12:41:49;100809.19;;;19.39;68.21
69535;BME280;56754;51.568;5.048;2023-08-06T12:44:14;100816.16;;;19.40;66.40
69535;BME280;56754;51.568;5.048;2023-08-06T12:46:40;100813.84;;;19.42;67.91
69535;BME280;56754;51.568;5.048;2023-08-06T12:49:06;100814.63;;;19.42;68.07
69535;BME280;56754;51.568;5.048;2023-08-06T12:51:32;100817.00;;;19.44;67.45
69535;BME280;56754;51.568;5.048;2023-08-06T12:53:57;100817.75;;;19.44;67.14
69535;BME280;56754;51.568;5.048;2023-08-06T12:56:22;100815.81;;;19.45;67.39